Time;durP1;ratioP1;P1;durP2;ratioP2;P2;SDS_P1;SDS_P2;PMS_P1;PMS_P2;Temp;Humidity;BMP_temperature;BMP_pressure;BME280_temperature;BME280_humidity;BME280_pressure;Samples;Min_cycle;Max_cycle;Signal;HPM_P1;HPM_P2
2024/04/03 00:00:38;;;;;;;;;;;11.80;99.90;;;;;;5004184;28;19918;-76
2024/04/03 00:03:04;;;;;;;;;;;11.70;99.90;;;;;;4997033;28;19949;-80
2024/04/03 00:05:29;;;;;;;;;;;11.70;99.90;;;;;;5027874;28;19984;-75
2024/04/03 00:07:55;;;;;;;;;;;11.70;99.90;;;;;;5015557;28;20325;-76
2024/04/03 00:10:20;;;;;;;;;;;11.80;99.90;;;;;;5007281;28;19999;-77
2024/04/03 00:12:46;;;;;;;;;;;11.80;99.90;;;;;;4991883;28;20269;-74
2024/04/03 00:15:11;;;;;;;;;;;11.70;99.90;;;;;;4991532;28;20306;-74
2024/04/03 00:17:37;;;;;;;;;;;11.70;99.90;;;;;;5001200;28;19909;-76
2024/04/03 00:20:03;;;;;;;;;;;11.60;99.90;;;;;;4997029;28;19968;-75
2024/04/03 00:22:28;;;;;;;;;;;11.60;99.90;;;;;;5000334;28;19917;-76
2024/04/03 00:24:54;;;;;;;;;;;11.60;99.90;;;;;;5007200;28;19910;-75
2024/04/03 00:27:19;;;;;;;;;;;11.50;99.90;;;;;;5011418;28;19920;-75
2024/04/03 00:29:46;;;;;;;;;;;11.60;99.90;;;;;;5005008;28;19920;-75
2024/04/03 00:32:11;;;;;;;;;;;11.50;99.90;;;;;;5011352;28;19914;-76
2024/04/03 00:34:37;;;;;;;;;;;11.40;99.90;;;;;;5009252;28;20341;-77
2024/04/03 00:37:02;;;;;;;;;;;11.40;99.90;;;;;;5010967;28;19910;-75
2024/04/03 00:39:28;;;;;;;;;;;11.30;99.90;;;;;;4993461;28;20396;-76
2024/04/03 00:41:53;;;;;;;;;;;11.20;99.90;;;;;;5001230;28;19949;-75
2024/04/03 00:44:18;;;;;;;;;;;11.30;99.90;;;;;;5007272;28;19910;-78
2024/04/03 00:46:44;;;;;;;;;;;11.50;99.90;;;;;;5001942;28;19979;-78
2024/04/03 00:49:10;;;;;;;;;;;11.60;99.90;;;;;;5010034;28;19924;-76
2024/04/03 00:51:36;;;;;;;;;;;11.60;99.90;;;;;;5001994;28;19996;-76
2024/04/03 00:54:02;;;;;;;;;;;11.50;99.90;;;;;;5004317;28;20357;-76
2024/04/03 00:56:28;;;;;;;;;;;11.60;99.90;;;;;;5001788;28;20000;-76
2024/04/03 00:58:53;;;;;;;;;;;11.50;99.90;;;;;;5009807;28;20001;-76
2024/04/03 01:01:19;;;;;;;;;;;11.40;99.90;;;;;;5001979;28;19971;-76
2024/04/03 01:03:45;;;;;;;;;;;11.40;99.90;;;;;;4990114;28;20012;-80
2024/04/03 01:06:10;;;;;;;;;;;11.50;99.90;;;;;;4992300;28;19917;-76
2024/04/03 01:08:36;;;;;;;;;;;11.60;99.90;;;;;;4992549;28;20267;-76
2024/04/03 01:11:02;;;;;;;;;;;11.60;99.90;;;;;;5009498;28;19917;-76
2024/04/03 01:13:27;;;;;;;;;;;11.60;99.90;;;;;;5009433;28;19998;-78
2024/04/03 01:15:53;;;;;;;;;;;11.60;99.90;;;;;;5009436;28;19996;-76
2024/04/03 01:18:19;;;;;;;;;;;11.50;99.90;;;;;;5006753;28;19918;-78
2024/04/03 01:20:44;;;;;;;;;;;11.30;99.90;;;;;;4993196;28;19929;-76
2024/04/03 01:23:10;;;;;;;;;;;11.20;99.90;;;;;;5009443;28;19917;-75
2024/04/03 01:25:35;;;;;;;;;;;11.10;99.90;;;;;;5000585;28;19933;-77
2024/04/03 01:28:01;;;;;;;;;;;11.10;99.90;;;;;;4991590;28;19910;-75
2024/04/03 01:30:26;;;;;;;;;;;11.20;99.90;;;;;;4998414;28;20419;-75
2024/04/03 01:32:52;;;;;;;;;;;11.30;99.90;;;;;;4995787;28;19918;-78
2024/04/03 01:35:17;;;;;;;;;;;11.40;99.90;;;;;;5000609;28;20436;-78
2024/04/03 01:37:43;;;;;;;;;;;11.40;99.90;;;;;;4993154;28;19925;-77
2024/04/03 01:40:08;;;;;;;;;;;11.40;99.90;;;;;;5010293;28;19944;-75
2024/04/03 01:42:34;;;;;;;;;;;11.30;99.90;;;;;;5007027;28;19968;-76
2024/04/03 01:45:01;;;;;;;;;;;11.20;99.90;;;;;;5000108;28;19918;-78
2024/04/03 01:47:28;;;;;;;;;;;11.10;99.90;;;;;;5008464;28;19929;-76
2024/04/03 01:49:53;;;;;;;;;;;11.00;99.90;;;;;;5001696;28;20361;-79
2024/04/03 01:52:19;;;;;;;;;;;11.00;99.90;;;;;;5004082;28;19917;-77
2024/04/03 01:54:45;;;;;;;;;;;11.00;99.90;;;;;;4989897;28;19918;-76
2024/04/03 01:57:11;;;;;;;;;;;11.00;99.90;;;;;;4991755;28;20295;-76
2024/04/03 01:59:37;;;;;;;;;;;11.00;99.90;;;;;;5010117;28;20464;-76
2024/04/03 02:02:02;;;;;;;;;;;11.10;99.90;;;;;;4988761;28;19918;-76
2024/04/03 02:04:28;;;;;;;;;;;11.00;99.90;;;;;;5001940;28;19953;-76
2024/04/03 02:06:53;;;;;;;;;;;10.90;99.90;;;;;;4993446;28;19945;-77
2024/04/03 02:09:19;;;;;;;;;;;10.90;99.90;;;;;;5001549;28;19982;-76
2024/04/03 02:11:44;;;;;;;;;;;10.90;99.90;;;;;;4989710;28;19925;-77
2024/04/03 02:14:12;;;;;;;;;;;10.90;99.90;;;;;;5019110;28;19910;-82
2024/04/03 02:16:43;;;;;;;;;;;10.90;99.90;;;;;;5030202;28;19961;-76
2024/04/03 02:19:09;;;;;;;;;;;10.90;99.90;;;;;;5001751;28;20310;-76
2024/04/03 02:21:37;;;;;;;;;;;10.90;99.90;;;;;;4997381;28;19921;-77
2024/04/03 02:24:03;;;;;;;;;;;11.00;99.90;;;;;;4999366;28;19918;-76
2024/04/03 02:26:28;;;;;;;;;;;10.90;99.90;;;;;;5007364;28;20423;-77
2024/04/03 02:28:54;;;;;;;;;;;11.00;99.90;;;;;;5011560;28;20292;-79
2024/04/03 02:31:19;;;;;;;;;;;11.00;99.90;;;;;;4995297;28;20047;-76
2024/04/03 02:33:45;;;;;;;;;;;11.00;99.90;;;;;;4993772;28;19917;-76
2024/04/03 02:36:11;;;;;;;;;;;10.90;99.90;;;;;;5004844;28;19917;-76
2024/04/03 02:38:37;;;;;;;;;;;11.00;99.90;;;;;;5008715;28;19966;-76
2024/04/03 02:41:03;;;;;;;;;;;11.00;99.90;;;;;;5005584;28;20331;-76
2024/04/03 02:43:28;;;;;;;;;;;11.10;99.90;;;;;;5000717;28;19910;-79
2024/04/03 02:45:54;;;;;;;;;;;11.20;99.90;;;;;;4995494;28;20284;-79
2024/04/03 02:48:20;;;;;;;;;;;11.30;99.90;;;;;;5004183;28;19918;-80
2024/04/03 02:50:48;;;;;;;;;;;11.20;99.90;;;;;;4990576;28;20000;-79
2024/04/03 02:53:17;;;;;;;;;;;11.20;99.90;;;;;;4999216;28;19917;-79
2024/04/03 02:55:42;;;;;;;;;;;11.20;99.90;;;;;;5006811;28;19936;-76
2024/04/03 02:58:08;;;;;;;;;;;11.10;99.90;;;;;;5009084;28;20307;-79
2024/04/03 03:00:33;;;;;;;;;;;11.20;99.90;;;;;;5004194;28;20381;-76
2024/04/03 03:02:59;;;;;;;;;;;11.20;99.90;;;;;;5000302;28;19910;-76
2024/04/03 03:05:24;;;;;;;;;;;11.10;99.90;;;;;;4994294;28;20280;-77
2024/04/03 03:07:50;;;;;;;;;;;11.00;99.90;;;;;;5008650;28;19918;-76
2024/04/03 03:10:15;;;;;;;;;;;10.90;99.90;;;;;;5007891;28;19913;-76
2024/04/03 03:12:41;;;;;;;;;;;10.90;99.90;;;;;;5000220;28;19910;-76
2024/04/03 03:15:07;;;;;;;;;;;10.90;99.90;;;;;;5007106;28;19921;-77
2024/04/03 03:17:32;;;;;;;;;;;10.90;99.90;;;;;;5009079;28;19916;-79
2024/04/03 03:19:58;;;;;;;;;;;10.90;99.90;;;;;;5009655;28;20292;-76
2024/04/03 03:22:23;;;;;;;;;;;10.90;99.90;;;;;;5002685;28;19913;-76
2024/04/03 03:24:49;;;;;;;;;;;10.90;99.90;;;;;;5008909;28;19914;-77
2024/04/03 03:27:14;;;;;;;;;;;10.90;99.90;;;;;;5008629;28;19916;-79
2024/04/03 03:29:40;;;;;;;;;;;10.90;99.90;;;;;;5003006;28;20004;-76
2024/04/03 03:32:05;;;;;;;;;;;10.90;99.90;;;;;;4978521;28;20392;-76
2024/04/03 03:34:31;;;;;;;;;;;10.90;99.90;;;;;;4988871;28;20338;-77
2024/04/03 03:36:56;;;;;;;;;;;10.90;99.90;;;;;;4994427;28;19979;-79
2024/04/03 03:39:22;;;;;;;;;;;10.90;99.90;;;;;;4985999;28;20394;-76
2024/04/03 03:41:47;;;;;;;;;;;10.90;99.90;;;;;;4979290;28;19918;-77
2024/04/03 03:44:13;;;;;;;;;;;10.80;99.90;;;;;;4990088;28;20368;-76
2024/04/03 03:46:38;;;;;;;;;;;10.70;99.90;;;;;;4988396;28;20001;-76
2024/04/03 03:54:32;;;;;;;;;;;10.80;99.90;;;;;;4995605;28;19953;-75
2024/04/03 03:56:58;;;;;;;;;;;10.80;99.90;;;;;;5006614;28;19943;-75
2024/04/03 03:59:23;;;;;;;;;;;10.80;99.90;;;;;;5000844;28;19933;-77
2024/04/03 04:01:49;;;;;;;;;;;10.70;99.90;;;;;;4990165;28;20004;-78
2024/04/03 04:04:14;;;;;;;;;;;10.70;99.90;;;;;;4990577;28;19910;-76
2024/04/03 04:06:40;;;;;;;;;;;10.70;99.90;;;;;;5002649;28;19914;-79
2024/04/03 04:09:05;;;;;;;;;;;10.80;99.90;;;;;;4989366;28;19976;-76
2024/04/03 04:11:31;;;;;;;;;;;10.90;99.90;;;;;;4976463;28;19918;-77
2024/04/03 04:13:56;;;;;;;;;;;10.90;99.90;;;;;;4989747;28;19933;-75
2024/04/03 04:16:22;;;;;;;;;;;11.00;99.90;;;;;;5001174;28;19917;-76
2024/04/03 04:18:48;;;;;;;;;;;11.00;99.90;;;;;;4988009;28;19917;-76
2024/04/03 04:21:15;;;;;;;;;;;11.10;99.90;;;;;;5001669;28;19971;-78
2024/04/03 04:23:40;;;;;;;;;;;11.10;99.90;;;;;;4993397;28;19952;-76
2024/04/03 04:26:06;;;;;;;;;;;11.20;99.90;;;;;;5023293;28;19918;-82
2024/04/03 04:28:32;;;;;;;;;;;11.20;99.90;;;;;;4997331;28;20284;-76
2024/04/03 04:31:01;;;;;;;;;;;11.20;99.90;;;;;;5002888;28;19924;-78
2024/04/03 04:33:30;;;;;;;;;;;11.20;99.90;;;;;;5015288;28;19908;-75
2024/04/03 04:35:57;;;;;;;;;;;11.20;99.90;;;;;;5005342;28;19910;-77
2024/04/03 04:38:24;;;;;;;;;;;11.20;99.90;;;;;;5008074;28;19920;-75
2024/04/03 04:41:02;;;;;;;;;;;11.20;99.90;;;;;;4997919;28;20002;-77
2024/04/03 04:43:29;;;;;;;;;;;11.10;99.90;;;;;;4998116;28;19914;-77
2024/04/03 04:45:58;;;;;;;;;;;11.20;99.90;;;;;;5002768;28;19917;-76
2024/04/03 04:48:27;;;;;;;;;;;11.20;99.90;;;;;;5008733;28;19998;-77
2024/04/03 04:50:53;;;;;;;;;;;11.30;99.90;;;;;;5009591;28;19909;-76
2024/04/03 04:53:19;;;;;;;;;;;11.40;99.90;;;;;;5011770;28;19916;-76
2024/04/03 04:55:52;;;;;;;;;;;11.40;99.90;;;;;;5009564;28;19909;-76
2024/04/03 04:58:17;;;;;;;;;;;11.50;99.90;;;;;;5001562;28;19916;-79
2024/04/03 05:00:43;;;;;;;;;;;11.40;99.90;;;;;;4987479;28;19922;-76
2024/04/03 05:03:08;;;;;;;;;;;11.40;99.90;;;;;;4994131;28;19932;-76
2024/04/03 05:05:34;;;;;;;;;;;11.40;99.90;;;;;;4998277;28;19963;-77
2024/04/03 05:07:59;;;;;;;;;;;11.30;99.90;;;;;;4990160;28;20105;-77
2024/04/03 05:10:25;;;;;;;;;;;11.30;99.90;;;;;;4998552;28;20389;-76
2024/04/03 05:12:51;;;;;;;;;;;11.30;99.90;;;;;;4986161;28;19918;-76
2024/04/03 05:15:17;;;;;;;;;;;11.20;99.90;;;;;;4994239;28;19910;-76
2024/04/03 05:17:43;;;;;;;;;;;11.20;99.90;;;;;;4990877;28;19917;-76
2024/04/03 05:20:08;;;;;;;;;;;11.10;99.90;;;;;;4993357;28;19917;-76
2024/04/03 05:22:34;;;;;;;;;;;11.10;99.90;;;;;;4993697;28;19997;-76
2024/04/03 05:24:59;;;;;;;;;;;11.10;99.90;;;;;;4981838;28;19960;-76
2024/04/03 05:27:25;;;;;;;;;;;11.20;99.90;;;;;;5007869;28;19920;-76
2024/04/03 05:29:50;;;;;;;;;;;11.20;99.90;;;;;;4995773;28;19996;-76
2024/04/03 05:32:16;;;;;;;;;;;11.30;99.90;;;;;;5000569;28;19920;-77
2024/04/03 05:34:41;;;;;;;;;;;11.40;99.90;;;;;;4989175;28;19927;-75
2024/04/03 05:37:06;;;;;;;;;;;11.30;99.90;;;;;;4998162;28;19953;-76
2024/04/03 05:39:33;;;;;;;;;;;11.30;99.90;;;;;;4998900;28;19910;-76
2024/04/03 05:41:58;;;;;;;;;;;11.30;99.90;;;;;;4997911;28;19914;-76
2024/04/03 05:44:24;;;;;;;;;;;11.40;99.90;;;;;;4992508;28;19933;-77
2024/04/03 05:46:52;;;;;;;;;;;11.30;99.90;;;;;;4993484;28;20027;-76
2024/04/03 05:49:18;;;;;;;;;;;11.30;99.90;;;;;;4992547;28;19917;-76
2024/04/03 05:51:46;;;;;;;;;;;11.50;99.90;;;;;;4992797;28;19910;-75
2024/04/03 05:54:11;;;;;;;;;;;11.50;99.90;;;;;;4989418;28;19963;-75
2024/04/03 05:56:37;;;;;;;;;;;11.50;99.90;;;;;;5003969;28;20330;-75
2024/04/03 05:59:02;;;;;;;;;;;11.40;99.90;;;;;;5005692;28;19910;-76
2024/04/03 06:01:28;;;;;;;;;;;11.40;99.90;;;;;;4999253;28;19970;-75
2024/04/03 06:03:53;;;;;;;;;;;11.50;99.90;;;;;;4991238;28;19910;-75
2024/04/03 06:06:20;;;;;;;;;;;11.60;99.90;;;;;;4990270;28;19910;-75
2024/04/03 06:08:46;;;;;;;;;;;11.50;99.90;;;;;;4989492;28;19917;-76
2024/04/03 06:11:11;;;;;;;;;;;11.50;99.90;;;;;;4992097;28;19922;-75
2024/04/03 06:13:37;;;;;;;;;;;11.50;99.90;;;;;;4990289;28;20327;-73
2024/04/03 06:16:02;;;;;;;;;;;11.60;99.90;;;;;;4992295;28;19910;-72
2024/04/03 06:18:28;;;;;;;;;;;11.70;99.90;;;;;;4995226;28;20288;-72
2024/04/03 06:20:53;;;;;;;;;;;11.60;99.90;;;;;;4998622;28;19925;-72
2024/04/03 06:23:19;;;;;;;;;;;11.50;99.90;;;;;;4992784;28;19955;-72
2024/04/03 06:25:44;;;;;;;;;;;11.60;99.90;;;;;;5007810;28;20361;-71
2024/04/03 06:28:10;;;;;;;;;;;11.60;99.90;;;;;;5004538;28;20415;-74
2024/04/03 06:30:35;;;;;;;;;;;11.60;99.90;;;;;;5004981;28;19909;-73
2024/04/03 06:33:01;;;;;;;;;;;11.70;99.90;;;;;;4994472;28;20335;-73
2024/04/03 06:35:26;;;;;;;;;;;11.60;99.90;;;;;;5002778;28;19921;-73
2024/04/03 06:37:52;;;;;;;;;;;11.70;99.90;;;;;;5008425;28;19910;-73
2024/04/03 06:40:19;;;;;;;;;;;11.80;99.90;;;;;;4993273;28;20346;-74
2024/04/03 06:42:44;;;;;;;;;;;11.70;99.90;;;;;;4992627;28;20005;-73
2024/04/03 06:45:10;;;;;;;;;;;11.80;99.90;;;;;;4989376;28;20000;-73
2024/04/03 06:47:36;;;;;;;;;;;11.80;99.90;;;;;;4996931;28;19910;-73
2024/04/03 06:50:02;;;;;;;;;;;11.90;99.90;;;;;;4994399;28;19910;-74
2024/04/03 06:52:28;;;;;;;;;;;11.90;99.90;;;;;;4996751;28;19932;-73
2024/04/03 06:54:56;;;;;;;;;;;11.90;99.90;;;;;;4991507;28;20293;-73
2024/04/03 06:57:22;;;;;;;;;;;12.00;99.90;;;;;;4991780;28;20008;-73
2024/04/03 06:59:48;;;;;;;;;;;11.90;99.90;;;;;;4990903;28;19960;-73
2024/04/03 07:02:13;;;;;;;;;;;11.80;99.90;;;;;;4991332;28;19917;-72
2024/04/03 07:04:39;;;;;;;;;;;11.80;99.90;;;;;;4989582;28;20361;-72
2024/04/03 07:07:05;;;;;;;;;;;11.80;99.90;;;;;;4989546;28;20294;-72
2024/04/03 07:09:30;;;;;;;;;;;11.80;99.90;;;;;;4991006;28;20382;-73
2024/04/03 07:11:56;;;;;;;;;;;11.80;99.90;;;;;;4999440;28;19926;-72
2024/04/03 07:14:21;;;;;;;;;;;11.90;99.90;;;;;;4990233;28;19914;-72
2024/04/03 07:16:47;;;;;;;;;;;12.00;99.90;;;;;;4999797;28;19910;-73
2024/04/03 07:19:13;;;;;;;;;;;12.00;99.90;;;;;;5004123;28;20008;-72
2024/04/03 07:21:40;;;;;;;;;;;11.90;99.90;;;;;;5000948;28;19918;-73
2024/04/03 07:24:06;;;;;;;;;;;12.00;99.90;;;;;;4987914;28;19944;-73
2024/04/03 07:26:32;;;;;;;;;;;12.00;99.90;;;;;;5002198;28;19910;-72
2024/04/03 07:28:57;;;;;;;;;;;12.10;99.90;;;;;;5004713;28;19916;-73
2024/04/03 07:31:23;;;;;;;;;;;12.10;99.90;;;;;;4994689;28;20265;-72
2024/04/03 07:33:49;;;;;;;;;;;12.10;99.90;;;;;;5004731;28;19979;-73
2024/04/03 07:36:15;;;;;;;;;;;12.00;99.90;;;;;;5002239;28;19913;-72
2024/04/03 07:38:40;;;;;;;;;;;12.10;99.90;;;;;;5004410;28;20391;-71
2024/04/03 07:41:06;;;;;;;;;;;12.10;99.90;;;;;;5000379;28;20381;-72
2024/04/03 07:43:31;;;;;;;;;;;12.10;99.90;;;;;;5005504;28;19949;-72
2024/04/03 07:46:00;;;;;;;;;;;12.10;99.90;;;;;;5001599;28;20288;-72
2024/04/03 07:48:25;;;;;;;;;;;12.30;99.90;;;;;;5001083;28;19909;-71
2024/04/03 07:51:01;;;;;;;;;;;12.20;99.90;;;;;;4999678;28;19918;-72
2024/04/03 07:53:26;;;;;;;;;;;12.10;99.90;;;;;;5005792;28;19910;-71
2024/04/03 07:55:52;;;;;;;;;;;12.20;99.90;;;;;;5000147;28;20257;-72
2024/04/03 07:58:18;;;;;;;;;;;12.30;99.90;;;;;;5003778;28;19910;-72
2024/04/03 08:00:44;;;;;;;;;;;12.40;99.90;;;;;;4999411;28;20438;-73
2024/04/03 08:03:10;;;;;;;;;;;12.40;99.90;;;;;;4990106;28;19935;-73
2024/04/03 08:05:36;;;;;;;;;;;12.50;99.90;;;;;;5000902;28;19912;-73
2024/04/03 08:08:01;;;;;;;;;;;12.50;99.90;;;;;;4989890;28;19910;-73
2024/04/03 08:10:26;;;;;;;;;;;12.60;99.90;;;;;;5001573;28;19917;-73
2024/04/03 08:12:53;;;;;;;;;;;12.70;99.90;;;;;;4999748;28;19910;-73
2024/04/03 08:15:19;;;;;;;;;;;12.70;99.90;;;;;;5007756;28;19910;-73
2024/04/03 08:17:44;;;;;;;;;;;12.80;99.90;;;;;;5007493;28;19909;-74
2024/04/03 08:20:10;;;;;;;;;;;12.90;99.90;;;;;;5007855;28;19922;-73
2024/04/03 08:22:36;;;;;;;;;;;13.20;99.90;;;;;;4997744;28;19913;-73
2024/04/03 08:25:02;;;;;;;;;;;13.50;99.90;;;;;;4986128;28;19921;-73
2024/04/03 08:27:31;;;;;;;;;;;13.80;99.90;;;;;;5010878;28;20261;-73
2024/04/03 08:29:57;;;;;;;;;;;14.20;99.90;;;;;;5011232;28;19916;-73
2024/04/03 08:32:23;;;;;;;;;;;14.30;99.90;;;;;;5012025;28;19913;-74
2024/04/03 08:34:50;;;;;;;;;;;14.40;99.90;;;;;;5011493;28;19910;-73
2024/04/03 08:37:15;;;;;;;;;;;14.50;99.90;;;;;;5010726;28;19909;-73
2024/04/03 08:39:41;;;;;;;;;;;14.50;99.90;;;;;;5003538;28;19996;-73
2024/04/03 08:42:09;;;;;;;;;;;14.50;99.90;;;;;;5012212;28;19921;-73
2024/04/03 08:44:35;;;;;;;;;;;14.50;99.90;;;;;;5001170;28;19909;-73
2024/04/03 08:47:01;;;;;;;;;;;14.60;99.90;;;;;;5007556;28;20022;-73
2024/04/03 08:49:27;;;;;;;;;;;14.60;99.90;;;;;;4992960;28;19963;-73
2024/04/03 08:51:56;;;;;;;;;;;14.70;99.90;;;;;;4991131;28;19910;-72
2024/04/03 08:54:22;;;;;;;;;;;14.80;99.90;;;;;;4992056;28;19917;-72
2024/04/03 08:56:49;;;;;;;;;;;14.90;99.90;;;;;;4991518;28;19964;-73
2024/04/03 08:59:15;;;;;;;;;;;14.90;99.90;;;;;;4991556;28;19997;-73
2024/04/03 09:01:40;;;;;;;;;;;14.70;99.90;;;;;;4992772;28;20009;-73
2024/04/03 09:04:06;;;;;;;;;;;14.70;99.90;;;;;;5009237;28;19910;-73
2024/04/03 09:06:38;;;;;;;;;;;14.80;99.90;;;;;;5010129;28;19910;-73
2024/04/03 09:09:03;;;;;;;;;;;14.70;99.90;;;;;;4979596;28;19917;-72
2024/04/03 09:11:29;;;;;;;;;;;14.60;99.90;;;;;;4991831;28;19918;-72
2024/04/03 09:13:55;;;;;;;;;;;14.70;99.90;;;;;;5005345;28;19914;-72
2024/04/03 09:16:21;;;;;;;;;;;14.90;99.90;;;;;;5003460;28;19944;-72
2024/04/03 09:18:48;;;;;;;;;;;14.90;99.90;;;;;;4984099;28;20383;-73
2024/04/03 09:21:19;;;;;;;;;;;15.00;99.90;;;;;;4998807;28;19926;-73
2024/04/03 09:23:45;;;;;;;;;;;15.00;99.90;;;;;;4996794;28;20396;-72
2024/04/03 09:26:11;;;;;;;;;;;15.10;99.90;;;;;;5005384;28;19914;-72
2024/04/03 09:28:36;;;;;;;;;;;15.10;99.90;;;;;;5010614;28;20263;-71
2024/04/03 09:31:02;;;;;;;;;;;15.00;99.90;;;;;;4997257;28;19914;-71
2024/04/03 09:33:30;;;;;;;;;;;15.10;99.90;;;;;;4998774;28;19914;-71
2024/04/03 09:35:55;;;;;;;;;;;15.00;99.90;;;;;;5004380;28;19918;-71
2024/04/03 09:38:21;;;;;;;;;;;15.10;99.90;;;;;;5009503;28;19921;-70
2024/04/03 09:40:47;;;;;;;;;;;15.10;99.90;;;;;;5008601;28;19926;-71
2024/04/03 09:43:13;;;;;;;;;;;15.10;99.90;;;;;;5010303;28;19909;-70
2024/04/03 09:45:39;;;;;;;;;;;15.10;99.90;;;;;;5003757;28;19955;-71
2024/04/03 09:48:05;;;;;;;;;;;15.20;99.90;;;;;;5002019;28;19921;-72
2024/04/03 09:50:34;;;;;;;;;;;15.30;99.90;;;;;;5002453;28;19963;-71
2024/04/03 09:53:00;;;;;;;;;;;15.50;99.90;;;;;;5010293;28;19916;-70
2024/04/03 09:55:29;;;;;;;;;;;15.40;99.90;;;;;;5007743;28;19909;-71
2024/04/03 09:58:18;;;;;;;;;;;15.50;99.90;;;;;;5010271;28;19909;-74
2024/04/03 10:00:51;;;;;;;;;;;15.40;99.90;;;;;;5002382;28;19964;-72
2024/04/03 10:03:34;;;;;;;;;;;15.30;99.90;;;;;;4991002;28;20324;-72
2024/04/03 10:06:03;;;;;;;;;;;15.30;99.90;;;;;;4987215;28;19909;-72
2024/04/03 10:08:48;;;;;;;;;;;15.30;99.90;;;;;;5009718;28;19909;-72
2024/04/03 10:11:15;;;;;;;;;;;15.30;99.90;;;;;;4999791;28;19925;-72
2024/04/03 10:13:42;;;;;;;;;;;15.30;99.90;;;;;;5006995;28;19914;-72
2024/04/03 10:16:14;;;;;;;;;;;15.40;99.90;;;;;;4990293;28;19921;-72
2024/04/03 10:18:40;;;;;;;;;;;15.60;99.90;;;;;;4989042;28;19945;-72
2024/04/03 10:21:10;;;;;;;;;;;15.70;99.90;;;;;;4991096;28;19918;-71
2024/04/03 10:23:41;;;;;;;;;;;15.70;99.90;;;;;;5008685;28;19949;-72
2024/04/03 10:26:07;;;;;;;;;;;15.60;99.90;;;;;;4999775;28;19936;-74
2024/04/03 10:28:33;;;;;;;;;;;15.60;99.90;;;;;;4995237;28;19910;-72
2024/04/03 10:30:58;;;;;;;;;;;15.50;99.90;;;;;;4992752;28;19986;-72
2024/04/03 10:33:24;;;;;;;;;;;15.50;99.90;;;;;;5001931;28;19914;-72
2024/04/03 10:35:50;;;;;;;;;;;15.60;99.90;;;;;;5003076;28;19916;-73
2024/04/03 10:38:15;;;;;;;;;;;15.50;99.90;;;;;;5009672;28;19910;-73
2024/04/03 10:40:41;;;;;;;;;;;15.50;99.90;;;;;;5008395;28;19921;-73
2024/04/03 10:43:06;;;;;;;;;;;15.50;99.90;;;;;;5009041;28;19962;-73
2024/04/03 10:45:32;;;;;;;;;;;15.40;99.90;;;;;;5009991;28;19910;-70
2024/04/03 10:47:57;;;;;;;;;;;15.50;99.90;;;;;;4989622;28;19985;-72
2024/04/03 10:50:23;;;;;;;;;;;15.60;99.90;;;;;;4995076;28;19913;-73
2024/04/03 10:52:50;;;;;;;;;;;15.70;99.90;;;;;;5010276;28;19910;-74
2024/04/03 10:55:19;;;;;;;;;;;15.80;99.90;;;;;;5014136;28;19909;-72
2024/04/03 10:57:47;;;;;;;;;;;16.00;99.90;;;;;;5016910;28;19913;-72
2024/04/03 11:00:13;;;;;;;;;;;16.10;99.90;;;;;;4992312;28;21181;-71
2024/04/03 11:02:45;;;;;;;;;;;16.30;99.90;;;;;;4997921;28;19949;-72
2024/04/03 11:05:11;;;;;;;;;;;16.60;99.90;;;;;;4997755;28;19914;-72
2024/04/03 11:07:36;;;;;;;;;;;16.70;99.90;;;;;;4990275;28;19917;-73
2024/04/03 11:10:05;;;;;;;;;;;16.70;99.90;;;;;;4988520;28;19914;-72
2024/04/03 11:12:31;;;;;;;;;;;16.70;99.90;;;;;;4984077;28;20012;-73
2024/04/03 11:14:56;;;;;;;;;;;16.80;99.90;;;;;;5003391;28;20402;-73
2024/04/03 11:17:22;;;;;;;;;;;16.70;99.90;;;;;;4992642;28;19913;-72
2024/04/03 11:19:48;;;;;;;;;;;16.80;99.90;;;;;;4994296;28;19914;-72
2024/04/03 11:22:13;;;;;;;;;;;16.80;99.90;;;;;;5001100;28;19913;-72
2024/04/03 11:24:39;;;;;;;;;;;16.70;99.90;;;;;;5002265;28;19917;-72
2024/04/03 11:27:06;;;;;;;;;;;16.60;99.90;;;;;;5000761;28;19909;-72
2024/04/03 11:29:32;;;;;;;;;;;16.70;99.90;;;;;;5003192;28;19913;-71
2024/04/03 11:31:58;;;;;;;;;;;16.90;99.90;;;;;;5003228;28;19910;-71
2024/04/03 11:34:27;;;;;;;;;;;17.00;99.90;;;;;;5004134;28;19920;-73
2024/04/03 11:36:52;;;;;;;;;;;17.10;99.90;;;;;;4994495;28;19955;-73
2024/04/03 11:39:18;;;;;;;;;;;17.00;99.90;;;;;;5003507;28;19913;-72
2024/04/03 11:41:44;;;;;;;;;;;16.90;99.90;;;;;;5002872;28;20447;-73
2024/04/03 11:44:09;;;;;;;;;;;17.10;99.90;;;;;;5001975;28;19917;-73
2024/04/03 11:46:35;;;;;;;;;;;16.90;99.90;;;;;;5002782;28;20058;-72
2024/04/03 11:49:02;;;;;;;;;;;16.90;99.90;;;;;;5001760;28;19914;-73
2024/04/03 11:51:29;;;;;;;;;;;16.80;99.90;;;;;;5003087;28;19909;-73
2024/04/03 11:53:54;;;;;;;;;;;16.80;99.90;;;;;;5000283;28;20304;-72
2024/04/03 11:56:21;;;;;;;;;;;16.80;99.90;;;;;;4997137;28;19953;-73
2024/04/03 11:58:46;;;;;;;;;;;16.60;99.90;;;;;;4993908;28;20380;-73
2024/04/03 12:01:12;;;;;;;;;;;16.50;99.90;;;;;;5028293;28;19918;-72
2024/04/03 12:03:38;;;;;;;;;;;16.60;99.90;;;;;;4998534;28;19909;-73
2024/04/03 12:06:06;;;;;;;;;;;16.50;99.90;;;;;;4995421;28;19918;-72
2024/04/03 12:08:31;;;;;;;;;;;16.40;99.90;;;;;;5003229;28;20273;-72
2024/04/03 12:10:58;;;;;;;;;;;16.30;99.90;;;;;;4995787;28;20012;-72
2024/04/03 12:13:24;;;;;;;;;;;16.30;99.90;;;;;;5004061;28;19956;-74
2024/04/03 12:15:49;;;;;;;;;;;16.10;99.90;;;;;;5000541;28;19910;-72
2024/04/03 12:18:24;;;;;;;;;;;15.90;99.90;;;;;;5011089;28;19917;-72
2024/04/03 12:20:53;;;;;;;;;;;15.90;99.90;;;;;;5011496;28;19979;-72
2024/04/03 12:23:18;;;;;;;;;;;16.00;99.90;;;;;;4998755;28;19920;-72
2024/04/03 12:25:44;;;;;;;;;;;16.20;99.90;;;;;;5010717;28;19909;-73
2024/04/03 12:28:10;;;;;;;;;;;16.60;99.90;;;;;;5009388;28;19910;-72
2024/04/03 12:30:35;;;;;;;;;;;17.00;99.90;;;;;;5011960;28;19996;-72
2024/04/03 12:33:01;;;;;;;;;;;17.40;99.90;;;;;;5009656;28;19913;-72
2024/04/03 12:35:29;;;;;;;;;;;17.70;99.90;;;;;;5011496;28;19920;-72
2024/04/03 12:37:57;;;;;;;;;;;17.70;99.90;;;;;;5009595;28;20384;-72
2024/04/03 12:40:23;;;;;;;;;;;18.00;99.90;;;;;;5011594;28;20017;-72
2024/04/03 12:42:48;;;;;;;;;;;18.10;99.90;;;;;;5010044;28;19945;-73
2024/04/03 12:45:14;;;;;;;;;;;18.40;99.90;;;;;;5010025;28;19909;-73
2024/04/03 12:47:40;;;;;;;;;;;18.50;99.90;;;;;;5008798;28;19917;-73
2024/04/03 12:50:06;;;;;;;;;;;18.50;99.90;;;;;;5007094;28;19910;-72
2024/04/03 12:52:31;;;;;;;;;;;18.50;99.90;;;;;;4997385;28;19976;-72
2024/04/03 12:54:57;;;;;;;;;;;18.70;99.90;;;;;;4999808;28;19910;-72
2024/04/03 12:57:22;;;;;;;;;;;18.80;99.90;;;;;;4999303;28;19941;-73
2024/04/03 12:59:48;;;;;;;;;;;18.70;99.90;;;;;;4995486;28;19909;-72
2024/04/03 13:02:14;;;;;;;;;;;18.60;99.90;;;;;;4992844;28;19971;-72
2024/04/03 13:04:40;;;;;;;;;;;18.60;99.90;;;;;;5017688;28;19910;-72
2024/04/03 13:07:05;;;;;;;;;;;18.70;99.90;;;;;;5014410;28;19910;-71
2024/04/03 13:09:33;;;;;;;;;;;18.70;99.90;;;;;;5015908;28;19909;-73
2024/04/03 13:11:59;;;;;;;;;;;18.50;99.90;;;;;;5011193;28;20291;-73
2024/04/03 13:14:24;;;;;;;;;;;18.30;99.90;;;;;;5010397;28;19909;-73
2024/04/03 13:16:50;;;;;;;;;;;18.20;99.90;;;;;;4997485;28;19916;-74
2024/04/03 13:19:16;;;;;;;;;;;18.30;99.90;;;;;;5011534;28;20382;-73
2024/04/03 13:21:41;;;;;;;;;;;18.10;99.90;;;;;;5006605;28;20025;-74
2024/04/03 13:24:07;;;;;;;;;;;18.10;99.90;;;;;;5002621;28;19990;-71
2024/04/03 13:26:32;;;;;;;;;;;18.10;99.90;;;;;;4990853;28;20048;-73
2024/04/03 13:28:58;;;;;;;;;;;18.20;99.90;;;;;;4999834;28;20292;-74
2024/04/03 13:31:24;;;;;;;;;;;18.40;99.90;;;;;;5000825;28;19914;-72
2024/04/03 13:33:50;;;;;;;;;;;18.50;99.90;;;;;;5007797;28;19982;-73
2024/04/03 13:36:15;;;;;;;;;;;18.50;99.90;;;;;;5006515;28;20389;-73
2024/04/03 13:38:41;;;;;;;;;;;18.60;99.90;;;;;;5007437;28;19920;-74
2024/04/03 13:41:08;;;;;;;;;;;18.70;99.90;;;;;;5005699;28;19940;-73
2024/04/03 13:43:34;;;;;;;;;;;18.90;99.90;;;;;;4991822;28;19914;-73
2024/04/03 13:45:59;;;;;;;;;;;18.90;99.90;;;;;;4998642;28;19916;-73
2024/04/03 13:48:25;;;;;;;;;;;19.00;99.90;;;;;;4999696;28;20338;-73
2024/04/03 13:50:50;;;;;;;;;;;19.20;99.90;;;;;;4997542;28;19918;-74
2024/04/03 13:53:16;;;;;;;;;;;19.30;99.90;;;;;;4997919;28;19978;-73
2024/04/03 13:55:43;;;;;;;;;;;19.20;99.90;;;;;;5001513;28;19921;-73
2024/04/03 13:58:08;;;;;;;;;;;19.10;99.90;;;;;;4991763;28;19960;-74
2024/04/03 14:00:35;;;;;;;;;;;19.00;99.90;;;;;;4991300;28;19961;-73
2024/04/03 14:03:00;;;;;;;;;;;18.90;99.90;;;;;;4990307;28;20004;-74
2024/04/03 14:05:26;;;;;;;;;;;18.90;99.90;;;;;;4991686;28;20348;-74
2024/04/03 14:07:51;;;;;;;;;;;18.80;99.90;;;;;;4989957;28;19909;-74
2024/04/03 14:10:17;;;;;;;;;;;18.80;99.90;;;;;;4988183;28;19937;-73
2024/04/03 14:12:43;;;;;;;;;;;18.90;99.90;;;;;;4990340;28;20000;-74
2024/04/03 14:15:09;;;;;;;;;;;19.00;99.90;;;;;;4999449;28;20005;-73